sensor_id;sensor_type;location;lat;lon;timestamp;temperature;humidity
42615;DHT22;28754;47.700;7.924;2023-03-01T00:02:36;-1.70;99.90
42615;DHT22;28754;47.700;7.924;2023-03-01T00:05:23;-1.70;99.90
42615;DHT22;28754;47.700;7.924;2023-03-01T00:08:10;-1.70;99.90
42615;DHT22;28754;47.700;7.924;2023-03-01T00:11:05;-1.70;99.90
42615;DHT22;28754;47.700;7.924;2023-03-01T00:13:56;-1.70;99.90
42615;DHT22;28754;47.700;7.924;2023-03-01T00:16:45;-1.80;99.90
42615;DHT22;28754;47.700;7.924;2023-03-01T00:19:32;-1.80;99.90
42615;DHT22;28754;47.700;7.924;2023-03-01T00:22:19;-1.80;99.90
42615;DHT22;28754;47.700;7.924;2023-03-01T00:25:06;-1.70;99.90
42615;DHT22;28754;47.700;7.924;2023-03-01T00:27:52;-1.80;99.90
42615;DHT22;28754;47.700;7.924;2023-03-01T00:30:39;-1.80;99.90
42615;DHT22;28754;47.700;7.924;2023-03-01T00:33:26;-1.70;99.90
42615;DHT22;28754;47.700;7.924;2023-03-01T00:36:14;-1.80;99.90
42615;DHT22;28754;47.700;7.924;2023-03-01T00:39:04;-1.80;99.90
42615;DHT22;28754;47.700;7.924;2023-03-01T00:41:52;-1.80;99.90
42615;DHT22;28754;47.700;7.924;2023-03-01T00:44:38;-1.90;99.90
42615;DHT22;28754;47.700;7.924;2023-03-01T00:47:25;-1.90;99.90
42615;DHT22;28754;47.700;7.924;2023-03-01T00:50:16;-2.00;99.90
42615;DHT22;28754;47.700;7.924;2023-03-01T00:53:03;-2.00;99.90
42615;DHT22;28754;47.700;7.924;2023-03-01T00:55:51;-2.00;99.90
42615;DHT22;28754;47.700;7.924;2023-03-01T00:58:38;-1.90;99.90
42615;DHT22;28754;47.700;7.924;2023-03-01T01:01:27;-2.00;99.90
42615;DHT22;28754;47.700;7.924;2023-03-01T01:04:18;-2.00;99.90
42615;DHT22;28754;47.700;7.924;2023-03-01T01:07:05;-1.90;99.90
42615;DHT22;28754;47.700;7.924;2023-03-01T01:09:51;-1.90;99.90
42615;DHT22;28754;47.700;7.924;2023-03-01T01:12:38;-1.90;99.90
42615;DHT22;28754;47.700;7.924;2023-03-01T01:15:25;-1.90;99.90
42615;DHT22;28754;47.700;7.924;2023-03-01T01:18:11;-2.00;99.90
42615;DHT22;28754;47.700;7.924;2023-03-01T01:21:04;-2.00;99.90
42615;DHT22;28754;47.700;7.924;2023-03-01T01:23:56;-2.00;99.90
42615;DHT22;28754;47.700;7.924;2023-03-01T01:26:43;-2.00;99.90
42615;DHT22;28754;47.700;7.924;2023-03-01T01:29:30;-2.00;99.90
42615;DHT22;28754;47.700;7.924;2023-03-01T01:32:17;-2.00;99.90
42615;DHT22;28754;47.700;7.924;2023-03-01T01:35:03;-2.00;99.90
42615;DHT22;28754;47.700;7.924;2023-03-01T01:37:50;-2.00;99.90
42615;DHT22;28754;47.700;7.924;2023-03-01T01:40:43;-2.00;99.90
42615;DHT22;28754;47.700;7.924;2023-03-01T01:43:35;-2.00;99.90
42615;DHT22;28754;47.700;7.924;2023-03-01T01:46:31;-2.00;99.90
42615;DHT22;28754;47.700;7.924;2023-03-01T01:49:48;-1.90;99.90
42615;DHT22;28754;47.700;7.924;2023-03-01T01:52:37;-1.80;99.90
42615;DHT22;28754;47.700;7.924;2023-03-01T01:55:26;-1.80;99.90
42615;DHT22;28754;47.700;7.924;2023-03-01T01:58:18;-1.80;99.90
42615;DHT22;28754;47.700;7.924;2023-03-01T02:01:07;-1.70;99.90
42615;DHT22;28754;47.700;7.924;2023-03-01T02:03:54;-1.70;99.90
42615;DHT22;28754;47.700;7.924;2023-03-01T02:06:48;-1.70;99.90
42615;DHT22;28754;47.700;7.924;2023-03-01T02:09:39;-1.70;99.90
42615;DHT22;28754;47.700;7.924;2023-03-01T02:12:30;-1.70;99.90
42615;DHT22;28754;47.700;7.924;2023-03-01T02:15:17;-1.70;99.90
42615;DHT22;28754;47.700;7.924;2023-03-01T02:18:05;-1.70;99.90
42615;DHT22;28754;47.700;7.924;2023-03-01T02:21:25;-1.70;99.90
42615;DHT22;28754;47.700;7.924;2023-03-01T02:24:57;-1.60;99.90
42615;DHT22;28754;47.700;7.924;2023-03-01T02:27:58;-1.70;99.90
42615;DHT22;28754;47.700;7.924;2023-03-01T02:30:54;-1.70;99.90
42615;DHT22;28754;47.700;7.924;2023-03-01T02:34:00;-1.60;99.90
42615;DHT22;28754;47.700;7.924;2023-03-01T02:37:03;-1.70;99.90
42615;DHT22;28754;47.700;7.924;2023-03-01T02:39:59;-1.80;99.90
42615;DHT22;28754;47.700;7.924;2023-03-01T02:42:55;-1.70;99.90
42615;DHT22;28754;47.700;7.924;2023-03-01T02:45:51;-1.70;99.90
42615;DHT22;28754;47.700;7.924;2023-03-01T02:48:41;-1.80;99.90
42615;DHT22;28754;47.700;7.924;2023-03-01T02:51:48;-1.80;99.90
42615;DHT22;28754;47.700;7.924;2023-03-01T02:57:52;-1.70;99.90
42615;DHT22;28754;47.700;7.924;2023-03-01T03:00:42;-1.70;99.90
42615;DHT22;28754;47.700;7.924;2023-03-01T03:03:34;-1.80;99.90
42615;DHT22;28754;47.700;7.924;2023-03-01T03:06:20;-1.80;99.90
42615;DHT22;28754;47.700;7.924;2023-03-01T03:09:07;-1.80;99.90
42615;DHT22;28754;47.700;7.924;2023-03-01T03:11:54;-1.80;99.90
42615;DHT22;28754;47.700;7.924;2023-03-01T03:14:42;-1.70;99.90
42615;DHT22;28754;47.700;7.924;2023-03-01T03:17:28;-1.70;99.90
42615;DHT22;28754;47.700;7.924;2023-03-01T03:20:17;-1.70;99.90
42615;DHT22;28754;47.700;7.924;2023-03-01T03:23:05;-1.70;99.90
42615;DHT22;28754;47.700;7.924;2023-03-01T03:25:52;-1.70;99.90
42615;DHT22;28754;47.700;7.924;2023-03-01T03:28:39;-1.60;99.90
42615;DHT22;28754;47.700;7.924;2023-03-01T03:31:26;-1.60;99.90
42615;DHT22;28754;47.700;7.924;2023-03-01T03:34:13;-1.60;99.90
42615;DHT22;28754;47.700;7.924;2023-03-01T03:37:04;-1.60;99.90
42615;DHT22;28754;47.700;7.924;2023-03-01T03:40:11;-1.60;99.90
42615;DHT22;28754;47.700;7.924;2023-03-01T03:43:09;-1.60;99.90
42615;DHT22;28754;47.700;7.924;2023-03-01T03:45:58;-1.60;99.90
42615;DHT22;28754;47.700;7.924;2023-03-01T03:48:45;-1.60;99.90
42615;DHT22;28754;47.700;7.924;2023-03-01T03:51:32;-1.60;99.90
42615;DHT22;28754;47.700;7.924;2023-03-01T03:54:19;-1.60;99.90
42615;DHT22;28754;47.700;7.924;2023-03-01T03:57:06;-1.60;99.90
42615;DHT22;28754;47.700;7.924;2023-03-01T03:59:53;-1.60;99.90
42615;DHT22;28754;47.700;7.924;2023-03-01T04:02:41;-1.70;99.90
42615;DHT22;28754;47.700;7.924;2023-03-01T04:05:29;-1.60;99.90
42615;DHT22;28754;47.700;7.924;2023-03-01T04:08:17;-1.70;99.90
42615;DHT22;28754;47.700;7.924;2023-03-01T04:11:08;-1.60;99.90
42615;DHT22;28754;47.700;7.924;2023-03-01T04:14:14;-1.70;99.90
42615;DHT22;28754;47.700;7.924;2023-03-01T04:17:00;-1.70;99.90
42615;DHT22;28754;47.700;7.924;2023-03-01T04:19:47;-1.70;99.90
42615;DHT22;28754;47.700;7.924;2023-03-01T04:22:35;-1.80;99.90
42615;DHT22;28754;47.700;7.924;2023-03-01T04:25:21;-1.70;99.90
42615;DHT22;28754;47.700;7.924;2023-03-01T04:28:12;-1.80;99.90
42615;DHT22;28754;47.700;7.924;2023-03-01T04:31:01;-1.80;99.90
42615;DHT22;28754;47.700;7.924;2023-03-01T04:33:59;-1.90;99.90
42615;DHT22;28754;47.700;7.924;2023-03-01T04:36:46;-1.90;99.90
42615;DHT22;28754;47.700;7.924;2023-03-01T04:39:32;-1.90;99.90
42615;DHT22;28754;47.700;7.924;2023-03-01T04:42:19;-1.80;99.90
42615;DHT22;28754;47.700;7.924;2023-03-01T04:45:06;-1.80;99.90
42615;DHT22;28754;47.700;7.924;2023-03-01T04:47:59;-1.80;99.90
42615;DHT22;28754;47.700;7.924;2023-03-01T04:50:45;-1.80;99.90
42615;DHT22;28754;47.700;7.924;2023-03-01T04:53:33;-1.70;99.90
42615;DHT22;28754;47.700;7.924;2023-03-01T04:56:22;-1.80;99.90
42615;DHT22;28754;47.700;7.924;2023-03-01T04:59:09;-1.80;99.90
42615;DHT22;28754;47.700;7.924;2023-03-01T05:01:56;-1.70;99.90
42615;DHT22;28754;47.700;7.924;2023-03-01T05:04:43;-1.80;99.90
42615;DHT22;28754;47.700;7.924;2023-03-01T05:07:30;-1.80;99.90
42615;DHT22;28754;47.700;7.924;2023-03-01T05:10:17;-1.80;99.90
42615;DHT22;28754;47.700;7.924;2023-03-01T05:13:03;-1.80;99.90
42615;DHT22;28754;47.700;7.924;2023-03-01T05:15:55;-1.80;99.90
42615;DHT22;28754;47.700;7.924;2023-03-01T05:18:46;-1.80;99.90
42615;DHT22;28754;47.700;7.924;2023-03-01T05:21:32;-1.80;99.90
42615;DHT22;28754;47.700;7.924;2023-03-01T05:24:20;-1.80;99.90
42615;DHT22;28754;47.700;7.924;2023-03-01T05:27:06;-1.80;99.90
42615;DHT22;28754;47.700;7.924;2023-03-01T05:29:53;-1.80;99.90
42615;DHT22;28754;47.700;7.924;2023-03-01T05:32:45;-1.80;99.90
42615;DHT22;28754;47.700;7.924;2023-03-01T05:35:33;-1.70;99.90
42615;DHT22;28754;47.700;7.924;2023-03-01T05:38:20;-1.70;99.90
42615;DHT22;28754;47.700;7.924;2023-03-01T05:41:14;-1.70;99.90
42615;DHT22;28754;47.700;7.924;2023-03-01T05:44:03;-1.70;99.90
42615;DHT22;28754;47.700;7.924;2023-03-01T05:46:51;-1.70;99.90
42615;DHT22;28754;47.700;7.924;2023-03-01T05:49:37;-1.70;99.90
42615;DHT22;28754;47.700;7.924;2023-03-01T05:52:24;-1.70;99.90
42615;DHT22;28754;47.700;7.924;2023-03-01T05:55:11;-1.70;99.90
42615;DHT22;28754;47.700;7.924;2023-03-01T05:58:04;-1.70;99.90
42615;DHT22;28754;47.700;7.924;2023-03-01T06:00:52;-1.80;99.90
42615;DHT22;28754;47.700;7.924;2023-03-01T06:03:38;-1.70;99.90
42615;DHT22;28754;47.700;7.924;2023-03-01T06:06:25;-1.70;99.90
42615;DHT22;28754;47.700;7.924;2023-03-01T06:09:12;-1.70;99.90
42615;DHT22;28754;47.700;7.924;2023-03-01T06:11:59;-1.70;99.90
42615;DHT22;28754;47.700;7.924;2023-03-01T06:14:46;-1.70;99.90
42615;DHT22;28754;47.700;7.924;2023-03-01T06:17:34;-1.70;99.90
42615;DHT22;28754;47.700;7.924;2023-03-01T06:20:25;-1.70;99.90
42615;DHT22;28754;47.700;7.924;2023-03-01T06:23:14;-1.80;99.90
42615;DHT22;28754;47.700;7.924;2023-03-01T06:26:05;-1.70;99.90
42615;DHT22;28754;47.700;7.924;2023-03-01T06:28:53;-1.70;99.90
42615;DHT22;28754;47.700;7.924;2023-03-01T06:31:40;-1.60;99.90
42615;DHT22;28754;47.700;7.924;2023-03-01T06:34:26;-1.60;99.90
42615;DHT22;28754;47.700;7.924;2023-03-01T06:37:13;-1.60;99.90
42615;DHT22;28754;47.700;7.924;2023-03-01T06:40:00;-1.60;99.90
42615;DHT22;28754;47.700;7.924;2023-03-01T06:42:51;-1.50;99.90
42615;DHT22;28754;47.700;7.924;2023-03-01T06:45:37;-1.50;99.90
42615;DHT22;28754;47.700;7.924;2023-03-01T06:48:24;-1.60;99.90
42615;DHT22;28754;47.700;7.924;2023-03-01T06:51:11;-1.50;99.90
42615;DHT22;28754;47.700;7.924;2023-03-01T06:53:57;-1.60;99.90
42615;DHT22;28754;47.700;7.924;2023-03-01T06:56:46;-1.70;99.90
42615;DHT22;28754;47.700;7.924;2023-03-01T06:59:33;-1.60;99.90
42615;DHT22;28754;47.700;7.924;2023-03-01T07:02:20;-1.60;99.90
42615;DHT22;28754;47.700;7.924;2023-03-01T07:05:07;-1.60;99.90
42615;DHT22;28754;47.700;7.924;2023-03-01T07:07:54;-1.50;99.90
42615;DHT22;28754;47.700;7.924;2023-03-01T07:10:41;-1.60;99.90
42615;DHT22;28754;47.700;7.924;2023-03-01T07:13:28;-1.50;99.90
42615;DHT22;28754;47.700;7.924;2023-03-01T07:16:15;-1.50;99.90
42615;DHT22;28754;47.700;7.924;2023-03-01T07:19:01;-1.50;99.90
42615;DHT22;28754;47.700;7.924;2023-03-01T07:21:48;-1.60;99.90
42615;DHT22;28754;47.700;7.924;2023-03-01T07:24:35;-1.60;99.90
42615;DHT22;28754;47.700;7.924;2023-03-01T07:27:21;-1.60;99.90
42615;DHT22;28754;47.700;7.924;2023-03-01T07:30:09;-1.60;99.90
42615;DHT22;28754;47.700;7.924;2023-03-01T07:32:57;-1.60;99.90
42615;DHT22;28754;47.700;7.924;2023-03-01T07:35:44;-1.60;99.90
42615;DHT22;28754;47.700;7.924;2023-03-01T07:38:31;-1.60;99.90
42615;DHT22;28754;47.700;7.924;2023-03-01T07:41:18;-1.70;99.90
42615;DHT22;28754;47.700;7.924;2023-03-01T07:44:05;-1.60;99.90
42615;DHT22;28754;47.700;7.924;2023-03-01T07:46:51;-1.60;99.90
42615;DHT22;28754;47.700;7.924;2023-03-01T07:49:42;-1.60;99.90
42615;DHT22;28754;47.700;7.924;2023-03-01T07:52:29;-1.60;99.90
42615;DHT22;28754;47.700;7.924;2023-03-01T07:55:16;-1.60;99.90
42615;DHT22;28754;47.700;7.924;2023-03-01T07:58:03;-1.50;99.90
42615;DHT22;28754;47.700;7.924;2023-03-01T08:00:50;-1.50;99.90
42615;DHT22;28754;47.700;7.924;2023-03-01T08:03:37;-1.50;99.90
42615;DHT22;28754;47.700;7.924;2023-03-01T08:06:24;-1.40;99.90
42615;DHT22;28754;47.700;7.924;2023-03-01T08:09:11;-1.40;99.90
42615;DHT22;28754;47.700;7.924;2023-03-01T08:11:58;-1.40;99.90
42615;DHT22;28754;47.700;7.924;2023-03-01T08:14:47;-1.50;99.90
42615;DHT22;28754;47.700;7.924;2023-03-01T08:17:34;-1.40;99.90
42615;DHT22;28754;47.700;7.924;2023-03-01T08:20:20;-1.40;99.90
42615;DHT22;28754;47.700;7.924;2023-03-01T08:23:07;-1.40;99.90
42615;DHT22;28754;47.700;7.924;2023-03-01T08:25:54;-1.50;99.90
42615;DHT22;28754;47.700;7.924;2023-03-01T08:28:41;-1.40;99.90
42615;DHT22;28754;47.700;7.924;2023-03-01T08:31:36;-1.40;99.90
42615;DHT22;28754;47.700;7.924;2023-03-01T08:34:26;-1.50;99.90
42615;DHT22;28754;47.700;7.924;2023-03-01T08:37:13;-1.50;99.90
42615;DHT22;28754;47.700;7.924;2023-03-01T08:40:00;-1.30;99.90
42615;DHT22;28754;47.700;7.924;2023-03-01T08:42:46;-1.30;99.90
42615;DHT22;28754;47.700;7.924;2023-03-01T08:45:33;-1.40;99.90
42615;DHT22;28754;47.700;7.924;2023-03-01T08:48:20;-1.40;99.90
42615;DHT22;28754;47.700;7.924;2023-03-01T08:51:18;-1.50;99.90
42615;DHT22;28754;47.700;7.924;2023-03-01T08:54:09;-1.40;99.90
42615;DHT22;28754;47.700;7.924;2023-03-01T08:56:57;-1.30;99.90
42615;DHT22;28754;47.700;7.924;2023-03-01T08:59:45;-1.30;99.90
42615;DHT22;28754;47.700;7.924;2023-03-01T09:02:31;-1.40;99.90
42615;DHT22;28754;47.700;7.924;2023-03-01T09:05:18;-1.30;99.90
42615;DHT22;28754;47.700;7.924;2023-03-01T09:08:05;-1.30;99.90
42615;DHT22;28754;47.700;7.924;2023-03-01T09:10:51;-1.30;99.90
42615;DHT22;28754;47.700;7.924;2023-03-01T09:13:38;-1.30;99.90
42615;DHT22;28754;47.700;7.924;2023-03-01T09:16:25;-1.20;99.90
42615;DHT22;28754;47.700;7.924;2023-03-01T09:19:12;-1.20;99.90
42615;DHT22;28754;47.700;7.924;2023-03-01T09:21:58;-1.20;99.90
42615;DHT22;28754;47.700;7.924;2023-03-01T09:24:45;-1.20;99.90
42615;DHT22;28754;47.700;7.924;2023-03-01T09:27:32;-1.20;99.90
42615;DHT22;28754;47.700;7.924;2023-03-01T09:30:19;-1.10;99.90
42615;DHT22;28754;47.700;7.924;2023-03-01T09:33:05;-1.00;99.90
42615;DHT22;28754;47.700;7.924;2023-03-01T09:36:00;-1.10;99.90
42615;DHT22;28754;47.700;7.924;2023-03-01T09:38:48;-1.00;99.90
42615;DHT22;28754;47.700;7.924;2023-03-01T09:41:49;-1.00;99.90
42615;DHT22;28754;47.700;7.924;2023-03-01T09:47:46;-1.10;99.90
42615;DHT22;28754;47.700;7.924;2023-03-01T09:50:39;-1.00;99.90
42615;DHT22;28754;47.700;7.924;2023-03-01T09:53:32;-1.10;99.90
42615;DHT22;28754;47.700;7.924;2023-03-01T09:56:28;-1.00;99.90
42615;DHT22;28754;47.700;7.924;2023-03-01T09:59:31;-1.00;99.90
42615;DHT22;28754;47.700;7.924;2023-03-01T10:05:40;-1.00;99.90
42615;DHT22;28754;47.700;7.924;2023-03-01T10:08:29;-1.00;99.90
42615;DHT22;28754;47.700;7.924;2023-03-01T10:11:30;-1.00;99.90
42615;DHT22;28754;47.700;7.924;2023-03-01T10:15:22;-1.00;99.90
42615;DHT22;28754;47.700;7.924;2023-03-01T10:18:04;-1.00;99.90
42615;DHT22;28754;47.700;7.924;2023-03-01T10:21:02;-0.90;99.90
42615;DHT22;28754;47.700;7.924;2023-03-01T10:24:10;-0.80;99.90
42615;DHT22;28754;47.700;7.924;2023-03-01T10:27:17;-0.80;99.90
42615;DHT22;28754;47.700;7.924;2023-03-01T10:30:13;-0.90;99.90
42615;DHT22;28754;47.700;7.924;2023-03-01T10:33:17;-0.90;99.90
42615;DHT22;28754;47.700;7.924;2023-03-01T10:36:09;-0.70;99.90
42615;DHT22;28754;47.700;7.924;2023-03-01T10:38:57;-0.70;99.90
42615;DHT22;28754;47.700;7.924;2023-03-01T10:41:56;-0.70;99.90
42615;DHT22;28754;47.700;7.924;2023-03-01T10:44:48;-0.70;99.90
42615;DHT22;28754;47.700;7.924;2023-03-01T10:47:35;-0.60;99.90
42615;DHT22;28754;47.700;7.924;2023-03-01T10:50:22;-0.40;99.90
42615;DHT22;28754;47.700;7.924;2023-03-01T10:56:15;-0.20;99.90
42615;DHT22;28754;47.700;7.924;2023-03-01T10:59:04;-0.10;99.90
42615;DHT22;28754;47.700;7.924;2023-03-01T11:08:06;0.00;99.90
42615;DHT22;28754;47.700;7.924;2023-03-01T11:11:46;0.10;99.90
42615;DHT22;28754;47.700;7.924;2023-03-01T11:14:22;0.20;99.90
42615;DHT22;28754;47.700;7.924;2023-03-01T11:17:18;0.30;99.90
42615;DHT22;28754;47.700;7.924;2023-03-01T11:23:13;0.50;99.90
42615;DHT22;28754;47.700;7.924;2023-03-01T11:26:04;0.50;99.90
42615;DHT22;28754;47.700;7.924;2023-03-01T11:28:56;0.50;99.90
42615;DHT22;28754;47.700;7.924;2023-03-01T11:31:47;0.50;99.90
42615;DHT22;28754;47.700;7.924;2023-03-01T11:34:43;0.60;99.90
42615;DHT22;28754;47.700;7.924;2023-03-01T11:37:39;0.80;99.90
42615;DHT22;28754;47.700;7.924;2023-03-01T11:40:35;0.90;99.90
42615;DHT22;28754;47.700;7.924;2023-03-01T11:56:34;1.00;99.90
42615;DHT22;28754;47.700;7.924;2023-03-01T12:10:17;0.90;99.90
42615;DHT22;28754;47.700;7.924;2023-03-01T12:26:34;0.80;99.90
42615;DHT22;28754;47.700;7.924;2023-03-01T12:29:31;0.90;99.90
42615;DHT22;28754;47.700;7.924;2023-03-01T12:36:23;1.10;99.90
42615;DHT22;28754;47.700;7.924;2023-03-01T12:42:38;1.00;99.90
42615;DHT22;28754;47.700;7.924;2023-03-01T12:45:56;1.10;99.90
42615;DHT22;28754;47.700;7.924;2023-03-01T12:49:18;1.20;99.90
42615;DHT22;28754;47.700;7.924;2023-03-01T12:52:23;1.30;99.90
42615;DHT22;28754;47.700;7.924;2023-03-01T12:55:32;1.50;99.90
42615;DHT22;28754;47.700;7.924;2023-03-01T13:01:25;2.10;99.90
42615;DHT22;28754;47.700;7.924;2023-03-01T13:10:43;2.50;99.90
42615;DHT22;28754;47.700;7.924;2023-03-01T13:13:42;2.30;99.90
42615;DHT22;28754;47.700;7.924;2023-03-01T13:19:26;2.50;99.90
42615;DHT22;28754;47.700;7.924;2023-03-01T13:22:28;2.60;99.90
42615;DHT22;28754;47.700;7.924;2023-03-01T13:25:19;2.60;99.90
42615;DHT22;28754;47.700;7.924;2023-03-01T13:34:48;3.00;99.90
42615;DHT22;28754;47.700;7.924;2023-03-01T13:37:36;2.80;99.90
42615;DHT22;28754;47.700;7.924;2023-03-01T13:43:30;2.60;99.90
42615;DHT22;28754;47.700;7.924;2023-03-01T13:46:38;2.60;99.90
42615;DHT22;28754;47.700;7.924;2023-03-01T13:49:31;2.80;99.90
42615;DHT22;28754;47.700;7.924;2023-03-01T13:52:39;2.70;99.90
42615;DHT22;28754;47.700;7.924;2023-03-01T13:56:01;2.50;99.90
42615;DHT22;28754;47.700;7.924;2023-03-01T13:58:57;2.50;99.90
42615;DHT22;28754;47.700;7.924;2023-03-01T14:01:53;2.60;99.90
42615;DHT22;28754;47.700;7.924;2023-03-01T14:04:44;2.70;99.90
42615;DHT22;28754;47.700;7.924;2023-03-01T14:07:43;2.60;99.90
42615;DHT22;28754;47.700;7.924;2023-03-01T14:10:47;2.70;99.90
42615;DHT22;28754;47.700;7.924;2023-03-01T14:14:04;2.70;99.90
42615;DHT22;28754;47.700;7.924;2023-03-01T14:20:40;2.80;99.90
42615;DHT22;28754;47.700;7.924;2023-03-01T14:23:29;2.80;99.90
42615;DHT22;28754;47.700;7.924;2023-03-01T14:26:21;2.80;99.90
42615;DHT22;28754;47.700;7.924;2023-03-01T14:29:34;2.60;99.90
42615;DHT22;28754;47.700;7.924;2023-03-01T14:32:29;2.50;99.90
42615;DHT22;28754;47.700;7.924;2023-03-01T14:35:23;2.70;99.90
42615;DHT22;28754;47.700;7.924;2023-03-01T14:38:34;3.20;99.90
42615;DHT22;28754;47.700;7.924;2023-03-01T14:41:28;3.10;99.90
42615;DHT22;28754;47.700;7.924;2023-03-01T14:44:20;2.80;99.90
42615;DHT22;28754;47.700;7.924;2023-03-01T14:47:32;2.80;99.90
42615;DHT22;28754;47.700;7.924;2023-03-01T14:50:29;2.60;99.90
42615;DHT22;28754;47.700;7.924;2023-03-01T14:53:29;2.50;99.90
42615;DHT22;28754;47.700;7.924;2023-03-01T14:56:16;2.30;99.90
42615;DHT22;28754;47.700;7.924;2023-03-01T14:59:03;2.20;99.90
42615;DHT22;28754;47.700;7.924;2023-03-01T15:01:51;2.10;99.90
42615;DHT22;28754;47.700;7.924;2023-03-01T15:04:43;2.20;99.90
42615;DHT22;28754;47.700;7.924;2023-03-01T15:07:36;2.10;99.90
42615;DHT22;28754;47.700;7.924;2023-03-01T15:10:34;2.10;99.90
42615;DHT22;28754;47.700;7.924;2023-03-01T15:13:24;2.10;99.90
42615;DHT22;28754;47.700;7.924;2023-03-01T15:16:17;2.20;99.90
42615;DHT22;28754;47.700;7.924;2023-03-01T15:19:06;2.30;99.90
42615;DHT22;28754;47.700;7.924;2023-03-01T15:21:53;2.20;99.90
42615;DHT22;28754;47.700;7.924;2023-03-01T15:24:40;2.50;99.90
42615;DHT22;28754;47.700;7.924;2023-03-01T15:27:27;2.60;99.90
42615;DHT22;28754;47.700;7.924;2023-03-01T15:30:30;3.00;99.90
42615;DHT22;28754;47.700;7.924;2023-03-01T15:33:44;3.10;99.90
42615;DHT22;28754;47.700;7.924;2023-03-01T15:36:41;3.10;99.90
42615;DHT22;28754;47.700;7.924;2023-03-01T15:39:37;3.00;99.90
42615;DHT22;28754;47.700;7.924;2023-03-01T15:48:05;2.70;99.90
42615;DHT22;28754;47.700;7.924;2023-03-01T15:51:03;2.70;99.90
42615;DHT22;28754;47.700;7.924;2023-03-01T15:53:51;2.60;99.90
42615;DHT22;28754;47.700;7.924;2023-03-01T15:56:39;2.50;99.90
42615;DHT22;28754;47.700;7.924;2023-03-01T15:59:28;2.40;99.90
42615;DHT22;28754;47.700;7.924;2023-03-01T16:02:14;2.40;99.90
42615;DHT22;28754;47.700;7.924;2023-03-01T16:05:02;2.30;99.90
42615;DHT22;28754;47.700;7.924;2023-03-01T16:07:50;2.20;99.90
42615;DHT22;28754;47.700;7.924;2023-03-01T16:10:38;2.10;99.90
42615;DHT22;28754;47.700;7.924;2023-03-01T16:13:26;1.90;99.90
42615;DHT22;28754;47.700;7.924;2023-03-01T16:16:15;1.80;99.90
42615;DHT22;28754;47.700;7.924;2023-03-01T16:19:02;1.70;99.90
42615;DHT22;28754;47.700;7.924;2023-03-01T16:21:49;1.60;99.90
42615;DHT22;28754;47.700;7.924;2023-03-01T16:24:36;1.40;99.90
42615;DHT22;28754;47.700;7.924;2023-03-01T16:27:22;1.30;99.90
42615;DHT22;28754;47.700;7.924;2023-03-01T16:30:10;1.20;99.90
42615;DHT22;28754;47.700;7.924;2023-03-01T16:32:57;1.20;99.90
42615;DHT22;28754;47.700;7.924;2023-03-01T16:35:47;1.20;99.90
42615;DHT22;28754;47.700;7.924;2023-03-01T16:38:33;1.00;99.90
42615;DHT22;28754;47.700;7.924;2023-03-01T16:41:22;1.00;99.90
42615;DHT22;28754;47.700;7.924;2023-03-01T16:44:10;0.90;99.90
42615;DHT22;28754;47.700;7.924;2023-03-01T16:47:05;0.90;99.90
42615;DHT22;28754;47.700;7.924;2023-03-01T16:50:24;0.80;99.90
42615;DHT22;28754;47.700;7.924;2023-03-01T16:53:11;0.80;99.90
42615;DHT22;28754;47.700;7.924;2023-03-01T16:55:58;0.70;99.90
42615;DHT22;28754;47.700;7.924;2023-03-01T16:58:45;0.70;99.90
42615;DHT22;28754;47.700;7.924;2023-03-01T17:01:32;0.60;99.90
42615;DHT22;28754;47.700;7.924;2023-03-01T17:04:23;0.60;99.90
42615;DHT22;28754;47.700;7.924;2023-03-01T17:07:10;0.50;99.90
42615;DHT22;28754;47.700;7.924;2023-03-01T17:09:57;0.40;99.90
42615;DHT22;28754;47.700;7.924;2023-03-01T17:12:43;0.40;99.90
42615;DHT22;28754;47.700;7.924;2023-03-01T17:15:30;0.30;99.90
42615;DHT22;28754;47.700;7.924;2023-03-01T17:18:24;0.20;99.90
42615;DHT22;28754;47.700;7.924;2023-03-01T17:21:21;0.10;99.90
42615;DHT22;28754;47.700;7.924;2023-03-01T17:24:08;0.00;99.90
42615;DHT22;28754;47.700;7.924;2023-03-01T17:26:55;0.00;99.90
42615;DHT22;28754;47.700;7.924;2023-03-01T17:29:41;0.00;99.90
42615;DHT22;28754;47.700;7.924;2023-03-01T17:32:28;-0.10;99.90
42615;DHT22;28754;47.700;7.924;2023-03-01T17:35:15;-0.10;99.90
42615;DHT22;28754;47.700;7.924;2023-03-01T17:38:02;-0.10;99.90
42615;DHT22;28754;47.700;7.924;2023-03-01T17:40:50;-0.20;99.90
42615;DHT22;28754;47.700;7.924;2023-03-01T17:43:37;-0.20;99.90
42615;DHT22;28754;47.700;7.924;2023-03-01T17:46:23;-0.20;99.90
42615;DHT22;28754;47.700;7.924;2023-03-01T17:49:12;-0.20;99.90
42615;DHT22;28754;47.700;7.924;2023-03-01T17:51:59;-0.10;99.90
42615;DHT22;28754;47.700;7.924;2023-03-01T17:54:46;0.00;99.90
42615;DHT22;28754;47.700;7.924;2023-03-01T17:57:33;0.00;99.90
42615;DHT22;28754;47.700;7.924;2023-03-01T18:00:20;0.00;99.90
42615;DHT22;28754;47.700;7.924;2023-03-01T18:03:06;0.00;99.90
42615;DHT22;28754;47.700;7.924;2023-03-01T18:05:53;-0.10;99.90
42615;DHT22;28754;47.700;7.924;2023-03-01T18:08:40;-0.10;99.90
42615;DHT22;28754;47.700;7.924;2023-03-01T18:11:27;0.00;99.90
42615;DHT22;28754;47.700;7.924;2023-03-01T18:14:14;0.00;99.90
42615;DHT22;28754;47.700;7.924;2023-03-01T18:17:01;0.10;99.90
42615;DHT22;28754;47.700;7.924;2023-03-01T18:19:51;0.20;99.90
42615;DHT22;28754;47.700;7.924;2023-03-01T18:22:38;0.30;99.90
42615;DHT22;28754;47.700;7.924;2023-03-01T18:25:25;0.40;99.90
42615;DHT22;28754;47.700;7.924;2023-03-01T18:28:11;0.40;99.90
42615;DHT22;28754;47.700;7.924;2023-03-01T18:31:00;0.30;99.90
42615;DHT22;28754;47.700;7.924;2023-03-01T18:33:51;0.20;99.90
42615;DHT22;28754;47.700;7.924;2023-03-01T18:36:40;0.20;99.90
42615;DHT22;28754;47.700;7.924;2023-03-01T18:39:27;0.20;99.90
42615;DHT22;28754;47.700;7.924;2023-03-01T18:42:14;0.30;99.90
42615;DHT22;28754;47.700;7.924;2023-03-01T18:45:01;0.30;99.90
42615;DHT22;28754;47.700;7.924;2023-03-01T18:47:48;0.30;99.90
42615;DHT22;28754;47.700;7.924;2023-03-01T18:50:35;0.40;99.90
42615;DHT22;28754;47.700;7.924;2023-03-01T18:53:22;0.40;99.90
42615;DHT22;28754;47.700;7.924;2023-03-01T18:56:10;0.40;99.90
42615;DHT22;28754;47.700;7.924;2023-03-01T18:58:57;0.50;99.90
42615;DHT22;28754;47.700;7.924;2023-03-01T19:01:45;0.50;99.90
42615;DHT22;28754;47.700;7.924;2023-03-01T19:04:32;0.60;99.90
42615;DHT22;28754;47.700;7.924;2023-03-01T19:07:19;0.60;99.90
42615;DHT22;28754;47.700;7.924;2023-03-01T19:10:07;0.70;99.90
42615;DHT22;28754;47.700;7.924;2023-03-01T19:13:05;0.70;99.90
42615;DHT22;28754;47.700;7.924;2023-03-01T19:16:09;0.80;99.90
42615;DHT22;28754;47.700;7.924;2023-03-01T19:18:59;0.80;99.90
42615;DHT22;28754;47.700;7.924;2023-03-01T19:21:50;0.80;99.90
42615;DHT22;28754;47.700;7.924;2023-03-01T19:24:37;0.80;99.90
42615;DHT22;28754;47.700;7.924;2023-03-01T19:27:24;0.90;99.90
42615;DHT22;28754;47.700;7.924;2023-03-01T19:30:11;0.90;99.90
42615;DHT22;28754;47.700;7.924;2023-03-01T19:33:02;0.90;99.90
42615;DHT22;28754;47.700;7.924;2023-03-01T19:35:52;0.90;99.90
42615;DHT22;28754;47.700;7.924;2023-03-01T19:38:42;1.00;99.90
42615;DHT22;28754;47.700;7.924;2023-03-01T19:41:30;1.10;99.90
42615;DHT22;28754;47.700;7.924;2023-03-01T19:44:17;1.10;99.90
42615;DHT22;28754;47.700;7.924;2023-03-01T19:47:04;1.10;99.90